Main page
METAR-TAF:

METAR-TAF

Airports :

Frankfurt, Germany

Frankfurt Airport

latitude: 50-03N, longitude: 008-36E, elevation: 111 m

Current weather observation

The report was made 16 minutes ago, at 07:50 UTC
Wind 5 kt from the East
Temperature -5°C
Humidity 93%
Pressure 1028 hPa
Visibility 10 km or more
no clouds below 1500 m and no cumulonimbus

METAR: EDDF 040750Z 08005KT CAVOK M05/M06 Q1028 NOSIG

Time: 09:06 (08:06 UTC)

Forecast

The report was made 3 hours and 6 minutes ago, at 05:00 UTC
Forecast valid from 04 at 06 UTC to 05 at 12 UTC
Wind 6 kt from the East/Northeast
Visibility 10 km or more
no clouds below 1500 m and no cumulonimbus
Becoming
from 05 at 08 UTC to 05 at 10 UTC
Wind 3 kt from variable directions

TAF: EDDF 040500Z 0406/0512 06006KT CAVOK BECMG 0508/0510 VRB03KT

Weather observations and forecasts of more than 4000 airports (METAR and TAF reports).

The available stations are represented by yellow and red dots on the map.

Hover mouse over dot to see the name of the station.

Then click to see weather observations and forecasts.

To change the map : click on the green buttons with a black cross to zoom in, on the green button with a dash to zoom out, or on the green arrows for adjacent maps.


METAR-TAF: